createdAt,value
2022-08-22T00:01:52.984Z,12.79
2022-08-22T00:02:52.234Z,12.86
2022-08-22T00:06:53.639Z,12.80
2022-08-22T00:11:54.199Z,12.80
2022-08-22T00:16:54.920Z,12.79
2022-08-22T00:21:55.802Z,12.79
2022-08-22T00:26:57.127Z,12.78
2022-08-22T00:31:57.642Z,12.79
2022-08-22T00:36:58.015Z,12.79
2022-08-22T00:41:59.690Z,12.79
2022-08-22T00:46:59.881Z,12.79
2022-08-22T00:52:00.266Z,12.81
2022-08-22T00:57:01.659Z,12.79
2022-08-22T01:02:03.161Z,12.80
2022-08-22T01:11:46.749Z,12.78
2022-08-22T01:16:41.480Z,12.78
2022-08-22T01:21:42.231Z,12.79
2022-08-22T01:26:44.661Z,12.77
2022-08-22T01:31:44.702Z,12.76
2022-08-22T01:36:44.303Z,12.79
2022-08-22T01:41:51.803Z,12.78
2022-08-22T01:46:45.664Z,12.77
2022-08-22T01:51:46.283Z,12.78
2022-08-22T01:56:50.158Z,12.76
2022-08-22T02:01:47.712Z,12.76
2022-08-22T02:06:48.477Z,12.78
2022-08-22T02:11:49.085Z,12.76
2022-08-22T02:16:49.780Z,12.75
2022-08-22T02:21:50.531Z,12.75
2022-08-22T02:36:38.463Z,12.75
2022-08-22T02:41:35.522Z,12.75
2022-08-22T02:46:31.101Z,12.74
2022-08-22T02:51:39.466Z,12.74
2022-08-22T02:56:29.138Z,12.74
2022-08-22T03:01:28.721Z,12.74
2022-08-22T03:06:29.448Z,12.74
2022-08-22T03:11:30.334Z,12.74
2022-08-22T03:16:31.036Z,12.74
2022-08-22T03:21:31.756Z,12.74
2022-08-22T03:26:32.331Z,12.74
2022-08-22T03:31:33.094Z,12.72
2022-08-22T03:36:34.189Z,12.73
2022-08-22T03:41:34.826Z,12.72
2022-08-22T03:46:35.422Z,12.74
2022-08-22T03:51:36.217Z,12.71
2022-08-22T03:56:37.037Z,12.72
2022-08-22T04:01:38.797Z,12.72
2022-08-22T04:06:38.876Z,12.71
2022-08-22T04:16:40.722Z,12.74
2022-08-22T04:21:41.276Z,12.72
2022-08-22T04:26:43.969Z,12.72
2022-08-22T04:31:42.600Z,12.73
2022-08-22T04:37:00.881Z,12.73
2022-08-22T04:46:44.906Z,12.75
2022-08-22T04:51:45.665Z,12.78
2022-08-22T04:56:53.967Z,12.78
2022-08-22T05:06:38.908Z,12.78
2022-08-22T05:11:38.567Z,12.81
2022-08-22T05:16:44.493Z,12.83
2022-08-22T05:21:44.898Z,12.88
2022-08-22T05:26:40.574Z,12.91
2022-08-22T05:31:46.974Z,13.00
2022-08-22T05:36:42.086Z,13.06
2022-08-22T05:41:43.361Z,13.09
2022-08-22T05:51:29.746Z,13.14
2022-08-22T06:00:21.008Z,13.17
2022-08-22T06:06:41.833Z,13.23
2022-08-22T06:11:33.631Z,13.29
2022-08-22T06:16:32.154Z,13.29
2022-08-22T06:21:35.487Z,13.33
2022-08-22T06:26:33.802Z,13.33
2022-08-22T06:31:34.485Z,13.34
2022-08-22T06:36:40.709Z,13.36
2022-08-22T06:41:36.266Z,13.37
2022-08-22T06:46:36.531Z,13.38
2022-08-22T06:51:37.377Z,13.42
2022-08-22T06:56:38.560Z,13.44
2022-08-22T07:01:39.508Z,13.46
2022-08-22T07:06:39.965Z,13.48
2022-08-22T07:11:40.393Z,13.50
2022-08-22T07:16:41.113Z,13.51
2022-08-22T07:21:41.705Z,13.55
2022-08-22T07:26:42.492Z,13.59
2022-08-22T07:31:43.077Z,13.63
2022-08-22T07:36:44.217Z,13.68
2022-08-22T07:41:45.671Z,13.70
2022-08-22T07:46:50.638Z,13.73
2022-08-22T07:51:45.842Z,13.80
2022-08-22T07:56:46.719Z,13.89
2022-08-22T08:01:47.218Z,13.98
2022-08-22T08:06:48.490Z,14.06
2022-08-22T08:11:49.388Z,14.09
2022-08-22T08:16:49.305Z,14.13
2022-08-22T08:21:50.099Z,14.20
2022-08-22T08:26:50.737Z,14.23
2022-08-22T08:31:51.370Z,14.32
2022-08-22T08:36:52.120Z,14.80
2022-08-22T08:41:52.757Z,14.82
2022-08-22T08:46:55.334Z,14.80
2022-08-22T08:51:54.071Z,14.80
2022-08-22T08:56:54.684Z,14.79
2022-08-22T09:01:58.036Z,14.80
2022-08-22T09:07:01.228Z,14.80
2022-08-22T09:11:59.513Z,14.80
2022-08-22T09:17:07.299Z,14.81
2022-08-22T09:22:01.160Z,14.79
2022-08-22T09:27:01.606Z,14.78
2022-08-22T09:32:02.791Z,14.80
2022-08-22T09:37:02.956Z,14.80
2022-08-22T09:42:03.572Z,14.80
2022-08-22T09:47:04.302Z,14.78
2022-08-22T09:52:14.354Z,14.81
2022-08-22T09:57:10.524Z,14.81
2022-08-22T10:02:07.031Z,14.80
2022-08-22T10:07:24.515Z,14.79
2022-08-22T10:12:12.367Z,14.79
2022-08-22T10:17:08.227Z,14.78
2022-08-22T10:22:14.643Z,14.80
2022-08-22T10:27:12.970Z,14.80
2022-08-22T10:32:27.718Z,14.82
2022-08-22T10:37:13.751Z,14.80
2022-08-22T10:42:14.394Z,14.80
2022-08-22T10:47:15.007Z,14.80
2022-08-22T10:52:16.265Z,14.79
2022-08-22T10:57:28.164Z,14.79
2022-08-22T11:01:41.072Z,14.80
2022-08-22T11:06:37.933Z,14.79
2022-08-22T11:11:37.549Z,14.80
2022-08-22T11:16:43.932Z,14.78
2022-08-22T11:31:40.077Z,14.79
2022-08-22T11:36:39.090Z,14.80
2022-08-22T11:41:40.376Z,14.79
2022-08-22T11:46:40.068Z,14.80
2022-08-22T11:56:41.606Z,14.80
2022-08-22T12:01:39.785Z,14.80
2022-08-22T12:07:00.856Z,14.80
2022-08-22T12:11:39.802Z,14.80
2022-08-22T12:21:46.806Z,14.79
2022-08-22T12:26:47.678Z,14.79
2022-08-22T12:31:40.862Z,14.79
2022-08-22T12:36:38.733Z,14.78
2022-08-22T12:46:29.214Z,14.81
2022-08-22T12:51:29.441Z,14.81
2022-08-22T13:01:40.226Z,14.78
2022-08-22T13:06:49.961Z,14.81
2022-08-22T13:11:50.640Z,14.82
2022-08-22T13:16:57.061Z,14.81
2022-08-22T13:26:40.778Z,14.81
2022-08-22T13:32:44.341Z,14.81
2022-08-22T13:36:32.438Z,14.80
2022-08-22T13:47:11.120Z,14.81
2022-08-22T13:57:04.129Z,14.80
2022-08-22T14:01:43.882Z,14.81
2022-08-22T14:11:44.770Z,14.80
2022-08-22T14:16:43.391Z,14.78
2022-08-22T14:21:46.033Z,14.80
2022-08-22T14:26:47.643Z,14.80
2022-08-22T14:31:45.108Z,14.79
2022-08-22T14:36:45.553Z,14.78
2022-08-22T14:41:53.042Z,14.79
2022-08-22T14:46:46.640Z,14.78
2022-08-22T14:51:47.301Z,14.81
2022-08-22T14:56:47.843Z,14.80
2022-08-22T15:01:51.340Z,14.79
2022-08-22T15:06:51.779Z,14.78
2022-08-22T15:11:53.156Z,14.78
2022-08-22T15:16:53.530Z,14.80
2022-08-22T15:21:53.784Z,14.77
2022-08-22T15:27:06.694Z,14.79
2022-08-22T15:31:55.073Z,14.78
2022-08-22T15:36:55.811Z,14.78
2022-08-22T15:41:56.465Z,14.78
2022-08-22T15:47:02.371Z,14.79
2022-08-22T15:51:58.408Z,14.78
2022-08-22T15:56:58.347Z,14.79
2022-08-22T16:01:58.930Z,14.79
2022-08-22T16:07:02.743Z,14.78
2022-08-22T16:12:02.915Z,14.79
2022-08-22T16:17:03.622Z,14.79
2022-08-22T16:22:15.597Z,13.84
2022-08-22T16:27:14.720Z,13.58
2022-08-22T16:32:05.881Z,13.42
2022-08-22T16:37:06.473Z,13.32
2022-08-22T16:42:06.737Z,13.28
